Portada
METAR-TAF:

METAR-TAF

Aeroports :

Holguín, Cuba

latitud: 20-47N, longitud: 076-19W, altitud: 106 m

Observació

L'informe es va fer fa 40 minuts, a les 15:50 UTC
Vent 3 kt amb direcció variable
Temperatura 29°C
Humitat 58%
Pressió 1016 hPa
Visibilitat: 9000 m
Núvols disperses a una alçada de 2400 ft

METAR: MUHG 281550Z VRB03KT 9000 SCT024 29/20 Q1016

Hora: 11:30 (16:30 UTC)

Pronòstic

L'informe es va fer fa 5 hores i 30 minuts, a les 11:00 UTC
Pronòstic vàlid del 28 a les 12 UTC al 29 a les 12 UTC
Vent 3 kt amb direcció variable
Visibilitat: 3000 m
Escasses núvols a una alçada de 4000 ft
boirina
Temporalment
l' 28 a les 12 UTC al 28 a les 14 UTC
Visibilitat: 0800 m
boira
A partir de les 28 a les 1500 UTC
Vent 3 kt amb direcció variable
Visibilitat: 9000 m
Núvols disperses a una alçada de 2000 ft

TAF: MUHG 281100Z 2812/2912 VRB03KT 3000 BR FEW040 TEMPO 2812/2814 0800 FG FM281500 VRB03KT 9000 SCT020

Observacions i pronòstics meteorològics de més de 4000 aeroports (METAR i TAF).

Les estacions disponibles són els punts grocs i vermells al mapa.

Posi el ratolí al punt desitjat per veure el nom de l'estació.

Feu clic per veure les observacions i els pronòstics meteorològics.

Per canviar el mapa: feu clic els botons verds amb una creu de color negre per apropar; al botó verd amb un guió per allunyar la imatge; o en les fletxes verdes per a mapes adjacents.


METAR-TAF: